AAL1244 KDEN-KDFW
Flight info
| Callsign | AAL1244 |
|---|---|
| Flight time | 2h 52m |
| Altitude | 37000 |
| Route | SLEEK2 SLEEK EZEEE MDANO VKTRY2 |
| Aircraft | B738/M-SDE2E3FGHIRWXY/LB1 |
Departure
| Time | 2026-05-08 00:44 |
|---|---|
| Airport | Denver International Airport (KDEN) |
Arrival
| Time | 2026-05-08 03:36 |
|---|---|
| Airport | Dallas Fort Worth International Airport (KDFW) |
| Time | Latitude | Longitude | Altitude | Speed | Heading |
|---|---|---|---|---|---|
| 2026-05-08 00:15 | 39.85799 | -104.67629 | 5385 ft | 0 kts | 359° |
| 2026-05-08 00:31 | 39.85775 | -104.67629 | 5384 ft | 3 kts | 360° |
| 2026-05-08 00:31 | 39.85754 | -104.67629 | 5384 ft | 4 kts | 0° |
| 2026-05-08 00:31 | 39.85727 | -104.67630 | 5383 ft | 3 kts | 0° |
| 2026-05-08 00:32 | 39.85723 | -104.67630 | 5383 ft | 0 kts | 0° |
| 2026-05-08 00:36 | 39.85724 | -104.67651 | 5385 ft | 5 kts | 232° |
| 2026-05-08 00:36 | 39.85689 | -104.67669 | 5385 ft | 6 kts | 198° |
| 2026-05-08 00:37 | 39.85628 | -104.67693 | 5385 ft | 10 kts | 194° |
| 2026-05-08 00:37 | 39.85594 | -104.67758 | 5385 ft | 10 kts | 267° |
| 2026-05-08 00:37 | 39.85594 | -104.67843 | 5385 ft | 9 kts | 271° |
| 2026-05-08 00:38 | 39.85596 | -104.68044 | 5385 ft | 14 kts | 270° |
| 2026-05-08 00:38 | 39.85597 | -104.68180 | 5385 ft | 15 kts | 270° |
| 2026-05-08 00:38 | 39.85598 | -104.68316 | 5376 ft | 16 kts | 270° |
| 2026-05-08 00:38 | 39.85605 | -104.68477 | 5368 ft | 18 kts | 290° |
| 2026-05-08 00:39 | 39.85717 | -104.68515 | 5368 ft | 17 kts | 1° |
| 2026-05-08 00:39 | 39.85835 | -104.68512 | 5366 ft | 17 kts | 1° |
| 2026-05-08 00:39 | 39.85951 | -104.68512 | 5364 ft | 17 kts | 360° |
| 2026-05-08 00:39 | 39.86076 | -104.68510 | 5363 ft | 18 kts | 1° |
| 2026-05-08 00:40 | 39.86204 | -104.68509 | 5363 ft | 19 kts | 360° |
| 2026-05-08 00:40 | 39.86334 | -104.68509 | 5365 ft | 18 kts | 360° |
| 2026-05-08 00:40 | 39.86422 | -104.68534 | 5365 ft | 9 kts | 301° |
| 2026-05-08 00:40 | 39.86426 | -104.68554 | 5367 ft | 0 kts | 278° |
| 2026-05-08 00:41 | 39.86427 | -104.68570 | 5364 ft | 4 kts | 274° |
| 2026-05-08 00:41 | 39.86427 | -104.68572 | 5364 ft | 0 kts | 273° |
| 2026-05-08 00:42 | 39.86428 | -104.68603 | 5367 ft | 6 kts | 272° |
| 2026-05-08 00:42 | 39.86432 | -104.68675 | 5367 ft | 9 kts | 279° |
| 2026-05-08 00:42 | 39.86479 | -104.68719 | 5364 ft | 9 kts | 358° |
| 2026-05-08 00:42 | 39.86546 | -104.68719 | 5365 ft | 12 kts | 1° |
| 2026-05-08 00:43 | 39.86740 | -104.68718 | 5363 ft | 56 kts | 0° |
| 2026-05-08 00:43 | 39.87361 | -104.68709 | 5358 ft | 120 kts | 0° |
| 2026-05-08 00:43 | 39.88385 | -104.68699 | 5360 ft | 172 kts | 0° |
| 2026-05-08 00:43 | 39.89602 | -104.68674 | 5995 ft | 174 kts | 358° |
| 2026-05-08 00:44 | 39.90822 | -104.68441 | 6673 ft | 183 kts | 6° |
| 2026-05-08 00:44 | 39.92122 | -104.68220 | 7267 ft | 189 kts | 0° |
| 2026-05-08 00:44 | 39.93374 | -104.67812 | 7981 ft | 191 kts | 27° |
| 2026-05-08 00:44 | 39.94359 | -104.66621 | 8767 ft | 196 kts | 51° |
| 2026-05-08 00:45 | 39.94926 | -104.64955 | 9404 ft | 212 kts | 73° |
| 2026-05-08 00:45 | 39.95028 | -104.63006 | 10013 ft | 217 kts | 95° |
| 2026-05-08 00:45 | 39.94628 | -104.61052 | 10386 ft | 233 kts | 110° |
| 2026-05-08 00:45 | 39.94010 | -104.59039 | 10728 ft | 244 kts | 113° |
| 2026-05-08 00:46 | 39.93267 | -104.57060 | 11349 ft | 240 kts | 121° |
| 2026-05-08 00:46 | 39.92256 | -104.55325 | 11849 ft | 245 kts | 138° |
| 2026-05-08 00:46 | 39.90818 | -104.53995 | 12002 ft | 264 kts | 158° |
| 2026-05-08 00:46 | 39.88980 | -104.53256 | 12022 ft | 292 kts | 175° |
| 2026-05-08 00:47 | 39.86897 | -104.52989 | 12183 ft | 317 kts | 181° |
| 2026-05-08 00:47 | 39.84610 | -104.52864 | 12387 ft | 341 kts | 180° |
| 2026-05-08 00:47 | 39.82178 | -104.52651 | 12824 ft | 356 kts | 178° |
| 2026-05-08 00:47 | 39.79706 | -104.52308 | 13585 ft | 360 kts | 176° |
| 2026-05-08 00:48 | 39.77218 | -104.51855 | 14348 ft | 362 kts | 174° |
| 2026-05-08 00:48 | 39.74710 | -104.51323 | 14999 ft | 368 kts | 173° |
| 2026-05-08 00:48 | 39.72168 | -104.50734 | 15638 ft | 374 kts | 173° |
| 2026-05-08 00:48 | 39.69594 | -104.50109 | 16281 ft | 379 kts | 173° |
| 2026-05-08 00:49 | 39.66990 | -104.49460 | 16936 ft | 383 kts | 173° |
| 2026-05-08 00:49 | 39.64351 | -104.48795 | 17583 ft | 388 kts | 173° |
| 2026-05-08 00:49 | 39.61686 | -104.48122 | 18175 ft | 393 kts | 173° |
| 2026-05-08 00:49 | 39.59020 | -104.47449 | 18726 ft | 397 kts | 173° |
| 2026-05-08 00:50 | 39.56266 | -104.46753 | 19301 ft | 400 kts | 173° |
| 2026-05-08 00:50 | 39.53567 | -104.46072 | 19932 ft | 401 kts | 173° |
| 2026-05-08 00:50 | 39.50814 | -104.45378 | 20469 ft | 406 kts | 173° |
| 2026-05-08 00:50 | 39.48021 | -104.44676 | 20969 ft | 411 kts | 173° |
| 2026-05-08 00:51 | 39.45201 | -104.43968 | 21489 ft | 415 kts | 173° |
| 2026-05-08 00:51 | 39.42357 | -104.43254 | 22039 ft | 418 kts | 173° |
| 2026-05-08 00:51 | 39.39485 | -104.42534 | 22566 ft | 422 kts | 173° |
| 2026-05-08 00:51 | 39.36586 | -104.41807 | 23065 ft | 426 kts | 173° |
| 2026-05-08 00:52 | 39.33664 | -104.41075 | 23568 ft | 429 kts | 173° |
| 2026-05-08 00:52 | 39.30729 | -104.40341 | 24035 ft | 431 kts | 173° |
| 2026-05-08 00:52 | 39.27811 | -104.39611 | 24452 ft | 434 kts | 173° |
| 2026-05-08 00:52 | 39.24837 | -104.38868 | 24878 ft | 437 kts | 173° |
| 2026-05-08 00:53 | 39.21836 | -104.38119 | 25306 ft | 440 kts | 173° |
| 2026-05-08 00:53 | 39.18824 | -104.37367 | 25736 ft | 443 kts | 173° |
| 2026-05-08 00:53 | 39.15789 | -104.36612 | 26160 ft | 446 kts | 173° |
| 2026-05-08 00:53 | 39.12736 | -104.35813 | 26551 ft | 449 kts | 172° |
| 2026-05-08 00:54 | 39.09684 | -104.34884 | 26950 ft | 453 kts | 170° |
| 2026-05-08 00:54 | 39.06614 | -104.33885 | 27328 ft | 456 kts | 170° |
| 2026-05-08 00:54 | 39.03526 | -104.32860 | 27714 ft | 459 kts | 169° |
| 2026-05-08 00:54 | 39.00427 | -104.31837 | 28075 ft | 462 kts | 170° |
| 2026-05-08 00:55 | 38.97341 | -104.30830 | 28438 ft | 465 kts | 170° |
| 2026-05-08 00:55 | 38.94194 | -104.29815 | 28792 ft | 467 kts | 170° |
| 2026-05-08 00:55 | 38.91033 | -104.28803 | 29091 ft | 470 kts | 170° |
| 2026-05-08 00:55 | 38.87851 | -104.27788 | 29474 ft | 471 kts | 170° |
| 2026-05-08 00:56 | 38.84662 | -104.26774 | 29806 ft | 474 kts | 170° |
| 2026-05-08 00:56 | 38.81452 | -104.25755 | 30092 ft | 477 kts | 170° |
| 2026-05-08 00:56 | 38.78222 | -104.24730 | 30323 ft | 479 kts | 170° |
| 2026-05-08 00:56 | 38.74980 | -104.23701 | 30556 ft | 482 kts | 170° |
| 2026-05-08 00:57 | 38.71706 | -104.22663 | 30780 ft | 485 kts | 170° |
| 2026-05-08 00:57 | 38.68432 | -104.21625 | 30987 ft | 487 kts | 169° |
| 2026-05-08 00:57 | 38.65143 | -104.20579 | 31348 ft | 486 kts | 170° |
| 2026-05-08 00:57 | 38.61860 | -104.19541 | 31660 ft | 486 kts | 170° |
| 2026-05-08 00:58 | 38.58565 | -104.18502 | 31914 ft | 488 kts | 170° |
| 2026-05-08 00:58 | 38.55267 | -104.17461 | 32191 ft | 489 kts | 169° |
| 2026-05-08 00:58 | 38.52023 | -104.16093 | 32488 ft | 494 kts | 159° |
| 2026-05-08 00:58 | 38.48994 | -104.14128 | 32808 ft | 496 kts | 150° |
| 2026-05-08 00:59 | 38.46186 | -104.11589 | 33153 ft | 495 kts | 141° |
| 2026-05-08 00:59 | 38.43845 | -104.09042 | 33504 ft | 494 kts | 140° |
| 2026-05-08 00:59 | 38.41241 | -104.06158 | 33782 ft | 495 kts | 139° |
| 2026-05-08 00:59 | 38.38637 | -104.03279 | 33990 ft | 497 kts | 139° |
| 2026-05-08 01:00 | 38.36254 | -104.00667 | 34220 ft | 496 kts | 140° |
| 2026-05-08 01:00 | 38.33638 | -103.97827 | 34580 ft | 493 kts | 140° |
| 2026-05-08 01:00 | 38.31026 | -103.95012 | 34983 ft | 489 kts | 141° |
| 2026-05-08 01:00 | 38.28434 | -103.92232 | 35330 ft | 486 kts | 141° |
| 2026-05-08 01:01 | 38.25857 | -103.89473 | 35711 ft | 483 kts | 141° |
| 2026-05-08 01:01 | 38.23332 | -103.86773 | 36070 ft | 479 kts | 141° |
| 2026-05-08 01:01 | 38.20784 | -103.84047 | 36368 ft | 478 kts | 142° |
| 2026-05-08 01:01 | 38.18238 | -103.81328 | 36544 ft | 479 kts | 142° |
| 2026-05-08 01:02 | 38.15690 | -103.78609 | 36773 ft | 479 kts | 142° |
| 2026-05-08 01:02 | 38.13132 | -103.75881 | 36962 ft | 480 kts | 142° |
| 2026-05-08 01:02 | 38.10566 | -103.73145 | 36935 ft | 483 kts | 142° |
| 2026-05-08 01:03 | 38.05433 | -103.67680 | 36931 ft | 480 kts | 142° |
| 2026-05-08 01:03 | 38.00341 | -103.62279 | 36946 ft | 475 kts | 142° |
| 2026-05-08 01:04 | 37.95272 | -103.56914 | 36894 ft | 473 kts | 142° |
| 2026-05-08 01:04 | 37.90231 | -103.51581 | 36905 ft | 472 kts | 142° |
| 2026-05-08 01:05 | 37.85183 | -103.46254 | 36884 ft | 472 kts | 143° |
| 2026-05-08 01:05 | 37.80147 | -103.40952 | 36902 ft | 472 kts | 143° |
| 2026-05-08 01:06 | 37.75145 | -103.35689 | 36899 ft | 471 kts | 143° |
| 2026-05-08 01:06 | 37.70102 | -103.30395 | 36893 ft | 471 kts | 143° |
| 2026-05-08 01:07 | 37.65070 | -103.25118 | 36898 ft | 471 kts | 143° |
| 2026-05-08 01:07 | 37.60017 | -103.19833 | 36899 ft | 472 kts | 143° |
| 2026-05-08 01:08 | 37.54949 | -103.14551 | 36897 ft | 473 kts | 143° |
| 2026-05-08 01:08 | 37.49874 | -103.09256 | 36907 ft | 474 kts | 143° |
| 2026-05-08 01:09 | 37.44828 | -103.04004 | 36885 ft | 474 kts | 143° |
| 2026-05-08 01:09 | 37.39744 | -102.98729 | 36890 ft | 473 kts | 143° |
| 2026-05-08 01:10 | 37.34661 | -102.93456 | 36898 ft | 474 kts | 143° |
| 2026-05-08 01:10 | 37.29581 | -102.88194 | 36895 ft | 474 kts | 143° |
| 2026-05-08 01:11 | 37.24482 | -102.82935 | 36877 ft | 475 kts | 144° |
| 2026-05-08 01:11 | 37.19417 | -102.77715 | 36888 ft | 474 kts | 144° |
| 2026-05-08 01:12 | 37.14343 | -102.72465 | 36893 ft | 472 kts | 144° |
| 2026-05-08 01:12 | 37.09254 | -102.67254 | 36891 ft | 472 kts | 144° |
| 2026-05-08 01:13 | 37.04168 | -102.62046 | 36885 ft | 472 kts | 144° |
| 2026-05-08 01:13 | 36.99093 | -102.56853 | 36885 ft | 471 kts | 144° |
| 2026-05-08 01:14 | 36.94022 | -102.51674 | 36886 ft | 470 kts | 145° |
| 2026-05-08 01:14 | 36.89002 | -102.46552 | 36897 ft | 469 kts | 145° |
| 2026-05-08 01:15 | 36.83958 | -102.41414 | 36904 ft | 468 kts | 145° |
| 2026-05-08 01:15 | 36.78911 | -102.36282 | 36899 ft | 467 kts | 146° |
| 2026-05-08 01:16 | 36.73871 | -102.31164 | 36911 ft | 467 kts | 146° |
| 2026-05-08 01:16 | 36.68828 | -102.26060 | 36911 ft | 467 kts | 146° |
| 2026-05-08 01:17 | 36.63827 | -102.21007 | 36915 ft | 466 kts | 146° |
| 2026-05-08 01:17 | 36.58792 | -102.15925 | 36905 ft | 465 kts | 146° |
| 2026-05-08 01:18 | 36.53761 | -102.10852 | 36906 ft | 465 kts | 146° |
| 2026-05-08 01:18 | 36.48733 | -102.05788 | 36923 ft | 465 kts | 147° |
| 2026-05-08 01:19 | 36.43710 | -102.00749 | 36919 ft | 465 kts | 147° |
| 2026-05-08 01:19 | 36.38713 | -101.95738 | 36883 ft | 465 kts | 148° |
| 2026-05-08 01:20 | 36.33695 | -101.90721 | 36921 ft | 464 kts | 148° |
| 2026-05-08 01:20 | 36.28673 | -101.85699 | 36931 ft | 464 kts | 148° |
| 2026-05-08 01:21 | 36.23636 | -101.80688 | 36923 ft | 465 kts | 148° |
| 2026-05-08 01:21 | 36.18591 | -101.75667 | 36924 ft | 464 kts | 148° |
| 2026-05-08 01:22 | 36.13593 | -101.70697 | 36928 ft | 463 kts | 148° |
| 2026-05-08 01:22 | 36.08571 | -101.65710 | 36931 ft | 463 kts | 149° |
| 2026-05-08 01:23 | 36.03543 | -101.60732 | 36932 ft | 463 kts | 149° |
| 2026-05-08 01:23 | 35.98525 | -101.55768 | 36932 ft | 462 kts | 149° |
| 2026-05-08 01:24 | 35.93509 | -101.50813 | 36900 ft | 461 kts | 150° |
| 2026-05-08 01:24 | 35.88514 | -101.45891 | 36927 ft | 459 kts | 150° |
| 2026-05-08 01:25 | 35.83552 | -101.41006 | 36988 ft | 459 kts | 150° |
| 2026-05-08 01:25 | 35.78660 | -101.35897 | 36984 ft | 467 kts | 144° |
| 2026-05-08 01:26 | 35.74094 | -101.30156 | 36998 ft | 470 kts | 142° |
| 2026-05-08 01:26 | 35.69560 | -101.24341 | 36978 ft | 471 kts | 144° |
| 2026-05-08 01:27 | 35.64996 | -101.18574 | 36988 ft | 471 kts | 144° |
| 2026-05-08 01:27 | 35.60428 | -101.12877 | 37004 ft | 471 kts | 144° |
| 2026-05-08 01:28 | 35.55827 | -101.07157 | 37020 ft | 471 kts | 144° |
| 2026-05-08 01:28 | 35.51234 | -101.01460 | 37016 ft | 469 kts | 144° |
| 2026-05-08 01:29 | 35.46650 | -100.95777 | 37014 ft | 469 kts | 144° |
| 2026-05-08 01:29 | 35.42057 | -100.90099 | 36981 ft | 469 kts | 145° |
| 2026-05-08 01:30 | 35.37483 | -100.84453 | 36971 ft | 469 kts | 145° |
| 2026-05-08 01:30 | 35.32886 | -100.78781 | 36958 ft | 470 kts | 145° |
| 2026-05-08 01:31 | 35.28280 | -100.73109 | 36958 ft | 469 kts | 145° |
| 2026-05-08 01:31 | 35.23680 | -100.67458 | 36954 ft | 468 kts | 146° |
| 2026-05-08 01:32 | 35.19078 | -100.61819 | 36957 ft | 468 kts | 146° |
| 2026-05-08 01:32 | 35.14516 | -100.56227 | 36971 ft | 469 kts | 146° |
| 2026-05-08 01:33 | 35.09904 | -100.50599 | 36969 ft | 468 kts | 146° |
| 2026-05-08 01:33 | 35.05292 | -100.44971 | 36969 ft | 468 kts | 146° |
| 2026-05-08 01:34 | 35.00691 | -100.39360 | 36961 ft | 467 kts | 147° |
| 2026-05-08 01:34 | 34.96116 | -100.33796 | 36959 ft | 466 kts | 147° |
| 2026-05-08 01:35 | 34.91526 | -100.28222 | 36970 ft | 466 kts | 147° |
| 2026-05-08 01:35 | 34.86933 | -100.22655 | 36959 ft | 466 kts | 147° |
| 2026-05-08 01:36 | 34.82337 | -100.17099 | 36964 ft | 466 kts | 147° |
| 2026-05-08 01:36 | 34.77739 | -100.11546 | 36955 ft | 466 kts | 147° |
| 2026-05-08 01:37 | 34.73158 | -100.06021 | 36960 ft | 467 kts | 147° |
| 2026-05-08 01:37 | 34.68541 | -100.00457 | 36966 ft | 468 kts | 147° |
| 2026-05-08 01:38 | 34.63910 | -99.94889 | 36958 ft | 469 kts | 147° |
| 2026-05-08 01:38 | 34.59274 | -99.89324 | 36957 ft | 465 kts | 147° |
| 2026-05-08 01:39 | 34.54795 | -99.83933 | 36954 ft | 451 kts | 148° |
| 2026-05-08 01:39 | 34.50350 | -99.78622 | 36954 ft | 450 kts | 148° |
| 2026-05-08 01:40 | 34.45873 | -99.73296 | 36954 ft | 449 kts | 148° |
| 2026-05-08 01:40 | 34.43626 | -99.70620 | 36627 ft | 455 kts | 148° |
| 2026-05-08 01:40 | 34.41380 | -99.67940 | 36317 ft | 450 kts | 148° |
| 2026-05-08 01:40 | 34.39158 | -99.65281 | 35913 ft | 447 kts | 148° |
| 2026-05-08 01:41 | 34.36953 | -99.62651 | 35601 ft | 443 kts | 148° |
| 2026-05-08 01:41 | 34.34812 | -99.60096 | 35411 ft | 434 kts | 149° |
| 2026-05-08 01:41 | 34.32683 | -99.57571 | 35226 ft | 423 kts | 151° |
| 2026-05-08 01:41 | 34.30419 | -99.55544 | 34962 ft | 390 kts | 167° |
| 2026-05-08 01:42 | 34.27993 | -99.54290 | 34759 ft | 374 kts | 178° |
| 2026-05-08 01:42 | 34.25484 | -99.53583 | 34549 ft | 367 kts | 186° |
| 2026-05-08 01:42 | 34.22958 | -99.53362 | 34324 ft | 360 kts | 194° |
| 2026-05-08 01:42 | 34.20522 | -99.53665 | 34090 ft | 345 kts | 203° |
| 2026-05-08 01:43 | 34.18274 | -99.54485 | 33840 ft | 332 kts | 212° |
| 2026-05-08 01:43 | 34.16260 | -99.55743 | 33573 ft | 322 kts | 220° |
| 2026-05-08 01:43 | 34.14500 | -99.57357 | 33313 ft | 315 kts | 227° |
| 2026-05-08 01:43 | 34.13025 | -99.59229 | 33060 ft | 310 kts | 234° |
| 2026-05-08 01:44 | 34.11813 | -99.61356 | 32802 ft | 307 kts | 242° |
| 2026-05-08 01:44 | 34.10902 | -99.63671 | 32547 ft | 306 kts | 249° |
| 2026-05-08 01:44 | 34.10309 | -99.66129 | 32300 ft | 306 kts | 256° |
| 2026-05-08 01:44 | 34.10045 | -99.68688 | 32035 ft | 309 kts | 263° |
| 2026-05-08 01:45 | 34.10128 | -99.71289 | 31789 ft | 313 kts | 270° |
| 2026-05-08 01:45 | 34.10572 | -99.73877 | 31546 ft | 319 kts | 277° |
| 2026-05-08 01:45 | 34.11285 | -99.76428 | 31312 ft | 323 kts | 282° |
| 2026-05-08 01:45 | 34.12251 | -99.78906 | 31049 ft | 330 kts | 289° |
| 2026-05-08 01:46 | 34.13679 | -99.81168 | 30800 ft | 346 kts | 301° |
| 2026-05-08 01:46 | 34.15360 | -99.83268 | 30581 ft | 348 kts | 302° |
| 2026-05-08 01:46 | 34.17069 | -99.85335 | 30347 ft | 349 kts | 303° |
| 2026-05-08 01:46 | 34.18776 | -99.87367 | 30120 ft | 349 kts | 304° |
| 2026-05-08 01:47 | 34.20495 | -99.89421 | 29858 ft | 347 kts | 303° |
| 2026-05-08 01:47 | 34.22198 | -99.91474 | 29588 ft | 345 kts | 303° |
| 2026-05-08 01:47 | 34.23912 | -99.93497 | 29308 ft | 342 kts | 304° |
| 2026-05-08 01:48 | 34.27249 | -99.97540 | 28779 ft | 337 kts | 303° |
| 2026-05-08 01:48 | 34.28897 | -99.99565 | 28505 ft | 336 kts | 303° |
| 2026-05-08 01:48 | 34.30544 | -100.01578 | 28252 ft | 338 kts | 304° |
| 2026-05-08 01:48 | 34.32193 | -100.03567 | 28006 ft | 333 kts | 304° |
| 2026-05-08 01:49 | 34.33745 | -100.05572 | 27783 ft | 329 kts | 303° |
| 2026-05-08 01:49 | 34.35349 | -100.07563 | 27532 ft | 332 kts | 305° |
| 2026-05-08 01:49 | 34.36986 | -100.09519 | 27296 ft | 330 kts | 306° |
| 2026-05-08 01:49 | 34.38615 | -100.11472 | 27054 ft | 329 kts | 306° |
| 2026-05-08 01:50 | 34.40235 | -100.13420 | 26813 ft | 328 kts | 306° |
| 2026-05-08 01:50 | 34.41843 | -100.15358 | 26576 ft | 326 kts | 306° |
| 2026-05-08 01:50 | 34.43443 | -100.17303 | 26331 ft | 325 kts | 306° |
| 2026-05-08 01:50 | 34.45032 | -100.19248 | 26090 ft | 326 kts | 306° |
| 2026-05-08 01:51 | 34.46626 | -100.21202 | 25821 ft | 325 kts | 306° |
| 2026-05-08 01:51 | 34.48216 | -100.23143 | 25586 ft | 324 kts | 306° |
| 2026-05-08 01:51 | 34.49806 | -100.25086 | 25352 ft | 325 kts | 307° |
| 2026-05-08 01:51 | 34.51370 | -100.27004 | 25122 ft | 323 kts | 307° |
| 2026-05-08 01:52 | 34.52946 | -100.28938 | 24891 ft | 322 kts | 307° |
| 2026-05-08 01:52 | 34.54522 | -100.30875 | 24661 ft | 322 kts | 307° |
| 2026-05-08 01:52 | 34.56092 | -100.32799 | 24443 ft | 321 kts | 308° |
| 2026-05-08 01:52 | 34.57797 | -100.34572 | 24228 ft | 328 kts | 321° |
| 2026-05-08 01:53 | 34.59854 | -100.35799 | 24131 ft | 330 kts | 330° |
| 2026-05-08 01:53 | 34.62033 | -100.36716 | 24063 ft | 335 kts | 336° |
| 2026-05-08 01:53 | 34.64333 | -100.37371 | 24017 ft | 345 kts | 343° |
| 2026-05-08 01:53 | 34.66757 | -100.37609 | 23976 ft | 356 kts | 354° |
| 2026-05-08 01:54 | 34.68405 | -100.37453 | 23966 ft | 362 kts | 2° |
| 2026-05-08 01:54 | 34.70864 | -100.36686 | 23960 ft | 369 kts | 15° |
| 2026-05-08 01:54 | 34.73174 | -100.35284 | 23967 ft | 375 kts | 27° |
| 2026-05-08 01:54 | 34.75261 | -100.33335 | 23961 ft | 382 kts | 39° |
| 2026-05-08 01:55 | 34.77013 | -100.30893 | 23958 ft | 386 kts | 52° |
| 2026-05-08 01:55 | 34.78341 | -100.28035 | 23964 ft | 389 kts | 65° |
| 2026-05-08 01:55 | 34.79166 | -100.24901 | 23968 ft | 392 kts | 79° |
| 2026-05-08 01:55 | 34.79446 | -100.21655 | 23969 ft | 392 kts | 92° |
| 2026-05-08 01:56 | 34.79171 | -100.18367 | 23961 ft | 391 kts | 105° |
| 2026-05-08 01:56 | 34.78393 | -100.15217 | 23972 ft | 389 kts | 115° |
| 2026-05-08 01:56 | 34.77243 | -100.12259 | 23969 ft | 386 kts | 126° |
| 2026-05-08 01:56 | 34.75639 | -100.09674 | 23970 ft | 380 kts | 139° |
| 2026-05-08 01:57 | 34.73818 | -100.07359 | 23966 ft | 380 kts | 141° |
| 2026-05-08 01:57 | 34.71941 | -100.05090 | 23961 ft | 381 kts | 141° |
| 2026-05-08 01:57 | 34.70048 | -100.02828 | 23966 ft | 382 kts | 142° |
| 2026-05-08 01:57 | 34.68158 | -100.00565 | 23962 ft | 382 kts | 142° |
| 2026-05-08 01:58 | 34.66269 | -99.98291 | 23959 ft | 382 kts | 141° |
| 2026-05-08 01:58 | 34.64410 | -99.96040 | 23956 ft | 382 kts | 141° |
| 2026-05-08 01:58 | 34.62530 | -99.93757 | 23955 ft | 381 kts | 141° |
| 2026-05-08 01:58 | 34.60661 | -99.91486 | 23952 ft | 381 kts | 141° |
| 2026-05-08 01:59 | 34.58788 | -99.89207 | 23932 ft | 380 kts | 142° |
| 2026-05-08 01:59 | 34.56928 | -99.86942 | 23947 ft | 379 kts | 142° |
| 2026-05-08 01:59 | 34.55067 | -99.84678 | 23953 ft | 378 kts | 142° |
| 2026-05-08 01:59 | 34.53207 | -99.82420 | 23948 ft | 378 kts | 142° |
| 2026-05-08 02:00 | 34.51352 | -99.80167 | 23951 ft | 378 kts | 142° |
| 2026-05-08 02:00 | 34.49493 | -99.77914 | 23956 ft | 378 kts | 142° |
| 2026-05-08 02:00 | 34.47633 | -99.75658 | 23962 ft | 379 kts | 142° |
| 2026-05-08 02:00 | 34.45765 | -99.73389 | 23970 ft | 380 kts | 142° |
| 2026-05-08 02:01 | 34.43893 | -99.71122 | 23975 ft | 381 kts | 142° |
| 2026-05-08 02:01 | 34.42047 | -99.68890 | 23969 ft | 381 kts | 142° |
| 2026-05-08 02:01 | 34.40168 | -99.66617 | 23971 ft | 382 kts | 142° |
| 2026-05-08 02:01 | 34.38294 | -99.64349 | 23966 ft | 381 kts | 142° |
| 2026-05-08 02:02 | 34.36414 | -99.62076 | 23954 ft | 382 kts | 142° |
| 2026-05-08 02:02 | 34.34533 | -99.59809 | 23952 ft | 382 kts | 142° |
| 2026-05-08 02:02 | 34.32644 | -99.57544 | 23964 ft | 382 kts | 143° |
| 2026-05-08 02:02 | 34.30552 | -99.55700 | 23958 ft | 364 kts | 165° |
| 2026-05-08 02:03 | 34.28189 | -99.54878 | 23980 ft | 347 kts | 183° |
| 2026-05-08 02:03 | 34.25835 | -99.54885 | 23983 ft | 333 kts | 198° |
| 2026-05-08 02:03 | 34.23668 | -99.55561 | 23980 ft | 322 kts | 211° |
| 2026-05-08 02:03 | 34.21740 | -99.56833 | 23978 ft | 312 kts | 224° |
| 2026-05-08 02:04 | 34.20178 | -99.58597 | 23983 ft | 304 kts | 237° |
| 2026-05-08 02:04 | 34.19051 | -99.60729 | 23978 ft | 300 kts | 249° |
| 2026-05-08 02:04 | 34.18405 | -99.63097 | 23978 ft | 297 kts | 261° |
| 2026-05-08 02:04 | 34.18250 | -99.65577 | 23975 ft | 297 kts | 272° |
| 2026-05-08 02:05 | 34.18578 | -99.68036 | 23978 ft | 298 kts | 282° |
| 2026-05-08 02:05 | 34.19263 | -99.70410 | 23967 ft | 301 kts | 291° |
| 2026-05-08 02:05 | 34.20422 | -99.72547 | 23959 ft | 310 kts | 306° |
| 2026-05-08 02:05 | 34.21917 | -99.74423 | 23969 ft | 310 kts | 308° |
| 2026-05-08 02:06 | 34.23436 | -99.76266 | 23972 ft | 310 kts | 308° |
| 2026-05-08 02:06 | 34.24959 | -99.78104 | 23965 ft | 310 kts | 308° |
| 2026-05-08 02:06 | 34.26466 | -99.79919 | 23967 ft | 310 kts | 308° |
| 2026-05-08 02:06 | 34.27992 | -99.81764 | 23971 ft | 311 kts | 308° |
| 2026-05-08 02:07 | 34.29525 | -99.83621 | 23975 ft | 312 kts | 308° |
| 2026-05-08 02:07 | 34.31061 | -99.85476 | 23967 ft | 312 kts | 308° |
| 2026-05-08 02:07 | 34.32596 | -99.87336 | 23963 ft | 312 kts | 308° |
| 2026-05-08 02:07 | 34.34123 | -99.89190 | 23982 ft | 312 kts | 308° |
| 2026-05-08 02:08 | 34.35658 | -99.91055 | 23978 ft | 313 kts | 308° |
| 2026-05-08 02:08 | 34.37192 | -99.92920 | 23974 ft | 312 kts | 308° |
| 2026-05-08 02:08 | 34.38723 | -99.94785 | 23975 ft | 313 kts | 308° |
| 2026-05-08 02:08 | 34.40259 | -99.96655 | 23981 ft | 314 kts | 308° |
| 2026-05-08 02:09 | 34.41781 | -99.98511 | 23984 ft | 315 kts | 308° |
| 2026-05-08 02:09 | 34.43323 | -100.00395 | 23980 ft | 315 kts | 308° |
| 2026-05-08 02:09 | 34.44868 | -100.02280 | 23987 ft | 317 kts | 308° |
| 2026-05-08 02:09 | 34.46423 | -100.04178 | 23967 ft | 317 kts | 308° |
| 2026-05-08 02:10 | 34.47978 | -100.06076 | 23956 ft | 318 kts | 308° |
| 2026-05-08 02:10 | 34.49539 | -100.07980 | 23959 ft | 318 kts | 308° |
| 2026-05-08 02:10 | 34.51092 | -100.09881 | 23965 ft | 318 kts | 308° |
| 2026-05-08 02:10 | 34.52649 | -100.11785 | 23961 ft | 318 kts | 308° |
| 2026-05-08 02:11 | 34.54209 | -100.13691 | 23965 ft | 318 kts | 308° |
| 2026-05-08 02:11 | 34.55766 | -100.15595 | 23963 ft | 318 kts | 308° |
| 2026-05-08 02:11 | 34.57321 | -100.17498 | 23982 ft | 317 kts | 308° |
| 2026-05-08 02:11 | 34.58889 | -100.19386 | 23969 ft | 320 kts | 313° |
| 2026-05-08 02:12 | 34.60801 | -100.20788 | 23970 ft | 333 kts | 331° |
| 2026-05-08 02:12 | 34.63062 | -100.21544 | 23969 ft | 343 kts | 344° |
| 2026-05-08 02:12 | 34.65486 | -100.21655 | 23963 ft | 355 kts | 358° |
| 2026-05-08 02:12 | 34.67931 | -100.20986 | 23961 ft | 368 kts | 15° |
| 2026-05-08 02:13 | 34.70180 | -100.19427 | 23952 ft | 380 kts | 34° |
| 2026-05-08 02:13 | 34.71967 | -100.17030 | 23965 ft | 390 kts | 55° |
| 2026-05-08 02:13 | 34.73061 | -100.13998 | 23975 ft | 395 kts | 76° |
| 2026-05-08 02:13 | 34.73310 | -100.10680 | 23975 ft | 395 kts | 97° |
| 2026-05-08 02:14 | 34.72699 | -100.07457 | 23975 ft | 391 kts | 116° |
| 2026-05-08 02:14 | 34.71389 | -100.04605 | 23956 ft | 382 kts | 135° |
| 2026-05-08 02:14 | 34.69613 | -100.02237 | 23977 ft | 379 kts | 141° |
| 2026-05-08 02:14 | 34.67747 | -99.99973 | 23976 ft | 380 kts | 142° |
| 2026-05-08 02:15 | 34.65854 | -99.97725 | 23963 ft | 380 kts | 142° |
| 2026-05-08 02:15 | 34.63990 | -99.95510 | 23958 ft | 380 kts | 142° |
| 2026-05-08 02:15 | 34.62106 | -99.93256 | 23949 ft | 380 kts | 141° |
| 2026-05-08 02:15 | 34.60229 | -99.90994 | 23951 ft | 380 kts | 141° |
| 2026-05-08 02:16 | 34.58362 | -99.88732 | 23930 ft | 380 kts | 142° |
| 2026-05-08 02:16 | 34.56494 | -99.86463 | 23952 ft | 379 kts | 142° |
| 2026-05-08 02:16 | 34.54634 | -99.84201 | 23953 ft | 379 kts | 141° |
| 2026-05-08 02:16 | 34.52778 | -99.81933 | 23947 ft | 379 kts | 141° |
| 2026-05-08 02:17 | 34.50923 | -99.79671 | 23956 ft | 378 kts | 142° |
| 2026-05-08 02:17 | 34.49062 | -99.77412 | 23959 ft | 378 kts | 142° |
| 2026-05-08 02:17 | 34.47206 | -99.75164 | 23960 ft | 378 kts | 142° |
| 2026-05-08 02:17 | 34.45369 | -99.72938 | 23964 ft | 378 kts | 142° |
| 2026-05-08 02:18 | 34.43509 | -99.70683 | 23973 ft | 378 kts | 142° |
| 2026-05-08 02:18 | 34.41645 | -99.68425 | 23967 ft | 379 kts | 141° |
| 2026-05-08 02:18 | 34.39781 | -99.66167 | 23966 ft | 379 kts | 141° |
| 2026-05-08 02:18 | 34.37917 | -99.63909 | 23969 ft | 379 kts | 141° |
| 2026-05-08 02:19 | 34.36058 | -99.61656 | 23967 ft | 379 kts | 141° |
| 2026-05-08 02:19 | 34.34191 | -99.59406 | 23952 ft | 379 kts | 142° |
| 2026-05-08 02:19 | 34.32311 | -99.57162 | 23965 ft | 378 kts | 146° |
| 2026-05-08 02:19 | 34.30156 | -99.55518 | 23973 ft | 359 kts | 168° |
| 2026-05-08 02:20 | 34.27783 | -99.54855 | 23974 ft | 343 kts | 186° |
| 2026-05-08 02:20 | 34.25457 | -99.54993 | 23992 ft | 330 kts | 200° |
| 2026-05-08 02:20 | 34.23332 | -99.55784 | 23980 ft | 320 kts | 213° |
| 2026-05-08 02:20 | 34.21468 | -99.57164 | 23987 ft | 311 kts | 226° |
| 2026-05-08 02:21 | 34.19990 | -99.59015 | 23972 ft | 304 kts | 238° |
| 2026-05-08 02:21 | 34.18958 | -99.61208 | 23978 ft | 299 kts | 251° |
| 2026-05-08 02:21 | 34.18427 | -99.63622 | 23979 ft | 298 kts | 263° |
| 2026-05-08 02:21 | 34.18390 | -99.66132 | 23971 ft | 300 kts | 275° |
| 2026-05-08 02:22 | 34.18827 | -99.68595 | 23966 ft | 301 kts | 284° |
| 2026-05-08 02:22 | 34.19624 | -99.70935 | 23971 ft | 305 kts | 295° |
| 2026-05-08 02:22 | 34.20946 | -99.72986 | 23977 ft | 313 kts | 307° |
| 2026-05-08 02:22 | 34.22444 | -99.74845 | 23967 ft | 313 kts | 308° |
| 2026-05-08 02:23 | 34.23996 | -99.76728 | 23974 ft | 312 kts | 308° |
| 2026-05-08 02:23 | 34.25519 | -99.78559 | 23971 ft | 313 kts | 308° |
| 2026-05-08 02:23 | 34.27062 | -99.80413 | 23969 ft | 313 kts | 308° |
| 2026-05-08 02:23 | 34.28603 | -99.82272 | 23971 ft | 313 kts | 308° |
| 2026-05-08 02:24 | 34.30142 | -99.84134 | 23969 ft | 313 kts | 308° |
| 2026-05-08 02:24 | 34.31681 | -99.85996 | 23970 ft | 313 kts | 308° |
| 2026-05-08 02:24 | 34.33223 | -99.87865 | 23968 ft | 313 kts | 308° |
| 2026-05-08 02:24 | 34.34761 | -99.89734 | 23977 ft | 314 kts | 308° |
| 2026-05-08 02:25 | 34.36298 | -99.91605 | 23979 ft | 315 kts | 308° |
| 2026-05-08 02:25 | 34.37848 | -99.93490 | 23982 ft | 316 kts | 308° |
| 2026-05-08 02:25 | 34.39399 | -99.95378 | 23985 ft | 317 kts | 308° |
| 2026-05-08 02:25 | 34.40955 | -99.97275 | 23980 ft | 319 kts | 308° |
| 2026-05-08 02:26 | 34.42518 | -99.99179 | 23983 ft | 319 kts | 308° |
| 2026-05-08 02:26 | 34.44061 | -100.01058 | 23985 ft | 319 kts | 308° |
| 2026-05-08 02:26 | 34.45626 | -100.02964 | 23960 ft | 319 kts | 308° |
| 2026-05-08 02:26 | 34.47189 | -100.04872 | 23961 ft | 319 kts | 308° |
| 2026-05-08 02:27 | 34.48749 | -100.06775 | 23967 ft | 319 kts | 308° |
| 2026-05-08 02:27 | 34.50312 | -100.08684 | 23961 ft | 319 kts | 308° |
| 2026-05-08 02:27 | 34.51873 | -100.10594 | 23968 ft | 318 kts | 308° |
| 2026-05-08 02:27 | 34.53432 | -100.12504 | 23966 ft | 319 kts | 308° |
| 2026-05-08 02:28 | 34.54994 | -100.14415 | 23963 ft | 319 kts | 308° |
| 2026-05-08 02:28 | 34.56551 | -100.16321 | 23964 ft | 318 kts | 308° |
| 2026-05-08 02:28 | 34.58109 | -100.18231 | 23974 ft | 318 kts | 308° |
| 2026-05-08 02:28 | 34.59819 | -100.19911 | 23955 ft | 329 kts | 324° |
| 2026-05-08 02:29 | 34.61975 | -100.20938 | 23968 ft | 340 kts | 339° |
| 2026-05-08 02:29 | 34.64350 | -100.21339 | 23964 ft | 350 kts | 352° |
| 2026-05-08 02:29 | 34.66804 | -100.21014 | 23954 ft | 363 kts | 8° |
| 2026-05-08 02:29 | 34.69160 | -100.19815 | 23958 ft | 375 kts | 27° |
| 2026-05-08 02:30 | 34.71163 | -100.17723 | 23962 ft | 387 kts | 47° |
| 2026-05-08 02:30 | 34.72543 | -100.14895 | 23981 ft | 393 kts | 69° |
| 2026-05-08 02:30 | 34.73114 | -100.11649 | 23961 ft | 395 kts | 89° |
| 2026-05-08 02:30 | 34.72811 | -100.08355 | 23974 ft | 391 kts | 110° |
| 2026-05-08 02:31 | 34.71759 | -100.05351 | 23967 ft | 384 kts | 128° |
| 2026-05-08 02:31 | 34.70095 | -100.02863 | 23980 ft | 376 kts | 140° |
| 2026-05-08 02:31 | 34.68258 | -100.00596 | 23968 ft | 377 kts | 142° |
| 2026-05-08 02:31 | 34.66413 | -99.98397 | 23963 ft | 378 kts | 142° |
| 2026-05-08 02:32 | 34.64529 | -99.96160 | 23956 ft | 379 kts | 142° |
| 2026-05-08 02:32 | 34.62656 | -99.93916 | 23956 ft | 379 kts | 141° |
| 2026-05-08 02:32 | 34.60785 | -99.91664 | 23950 ft | 378 kts | 141° |
| 2026-05-08 02:32 | 34.58921 | -99.89410 | 23926 ft | 378 kts | 141° |
| 2026-05-08 02:33 | 34.57061 | -99.87152 | 23952 ft | 378 kts | 141° |
| 2026-05-08 02:33 | 34.55203 | -99.84895 | 23960 ft | 378 kts | 142° |
| 2026-05-08 02:33 | 34.53346 | -99.82640 | 23949 ft | 378 kts | 141° |
| 2026-05-08 02:33 | 34.51490 | -99.80386 | 23951 ft | 377 kts | 141° |
| 2026-05-08 02:34 | 34.49667 | -99.78163 | 23954 ft | 378 kts | 141° |
| 2026-05-08 02:34 | 34.47812 | -99.75906 | 23960 ft | 378 kts | 141° |
| 2026-05-08 02:34 | 34.45958 | -99.73654 | 23963 ft | 378 kts | 141° |
| 2026-05-08 02:34 | 34.44103 | -99.71404 | 23966 ft | 377 kts | 141° |
| 2026-05-08 02:35 | 34.42246 | -99.69155 | 23959 ft | 377 kts | 141° |
| 2026-05-08 02:35 | 34.40393 | -99.66912 | 23970 ft | 377 kts | 141° |
| 2026-05-08 02:35 | 34.38533 | -99.64658 | 23970 ft | 378 kts | 141° |
| 2026-05-08 02:35 | 34.36700 | -99.62437 | 23971 ft | 378 kts | 141° |
| 2026-05-08 02:36 | 34.34840 | -99.60186 | 23953 ft | 379 kts | 142° |
| 2026-05-08 02:36 | 34.32975 | -99.57933 | 23966 ft | 380 kts | 142° |
| 2026-05-08 02:36 | 34.30951 | -99.55978 | 23956 ft | 365 kts | 161° |
| 2026-05-08 02:36 | 34.28618 | -99.55007 | 23984 ft | 348 kts | 180° |
| 2026-05-08 02:37 | 34.26256 | -99.54885 | 23983 ft | 335 kts | 195° |
| 2026-05-08 02:37 | 34.24027 | -99.55482 | 23979 ft | 323 kts | 209° |
| 2026-05-08 02:37 | 34.22066 | -99.56703 | 23981 ft | 313 kts | 222° |
| 2026-05-08 02:37 | 34.20477 | -99.58441 | 23968 ft | 306 kts | 235° |
| 2026-05-08 02:38 | 34.19337 | -99.60532 | 23981 ft | 300 kts | 248° |
| 2026-05-08 02:38 | 34.18656 | -99.62899 | 23973 ft | 299 kts | 260° |
| 2026-05-08 02:38 | 34.18479 | -99.65395 | 23981 ft | 300 kts | 272° |
| 2026-05-08 02:38 | 34.18799 | -99.67884 | 23982 ft | 301 kts | 282° |
| 2026-05-08 02:39 | 34.19504 | -99.70280 | 23976 ft | 306 kts | 291° |
| 2026-05-08 02:39 | 34.20712 | -99.72430 | 23967 ft | 314 kts | 307° |
| 2026-05-08 02:39 | 34.22227 | -99.74332 | 23970 ft | 315 kts | 308° |
| 2026-05-08 02:39 | 34.23776 | -99.76206 | 23972 ft | 314 kts | 308° |
| 2026-05-08 02:40 | 34.25327 | -99.78070 | 23961 ft | 315 kts | 308° |
| 2026-05-08 02:40 | 34.26877 | -99.79936 | 23962 ft | 315 kts | 308° |
| 2026-05-08 02:40 | 34.28425 | -99.81802 | 23967 ft | 314 kts | 308° |
| 2026-05-08 02:40 | 34.29970 | -99.83669 | 23974 ft | 314 kts | 308° |
| 2026-05-08 02:41 | 34.31489 | -99.85504 | 23965 ft | 312 kts | 308° |
| 2026-05-08 02:41 | 34.33025 | -99.87363 | 23973 ft | 313 kts | 308° |
| 2026-05-08 02:41 | 34.34561 | -99.89231 | 23982 ft | 314 kts | 308° |
| 2026-05-08 02:41 | 34.36109 | -99.91116 | 23982 ft | 316 kts | 308° |
| 2026-05-08 02:42 | 34.37663 | -99.93012 | 23975 ft | 318 kts | 308° |
| 2026-05-08 02:42 | 34.39224 | -99.94912 | 23979 ft | 319 kts | 308° |
| 2026-05-08 02:42 | 34.40794 | -99.96819 | 23980 ft | 320 kts | 308° |
| 2026-05-08 02:42 | 34.42367 | -99.98736 | 23986 ft | 320 kts | 308° |
| 2026-05-08 02:43 | 34.43941 | -100.00655 | 23987 ft | 322 kts | 308° |
| 2026-05-08 02:43 | 34.45498 | -100.02556 | 23966 ft | 322 kts | 308° |
| 2026-05-08 02:43 | 34.47078 | -100.04486 | 23965 ft | 323 kts | 308° |
| 2026-05-08 02:43 | 34.48659 | -100.06415 | 23963 ft | 323 kts | 308° |
| 2026-05-08 02:44 | 34.50243 | -100.08350 | 23959 ft | 323 kts | 308° |
| 2026-05-08 02:44 | 34.51836 | -100.10273 | 23957 ft | 325 kts | 312° |
| 2026-05-08 02:44 | 34.53857 | -100.11595 | 23962 ft | 343 kts | 340° |
| 2026-05-08 02:44 | 34.56286 | -100.11644 | 23957 ft | 364 kts | 6° |
| 2026-05-08 02:45 | 34.58627 | -100.10348 | 23975 ft | 381 kts | 34° |
| 2026-05-08 02:45 | 34.60362 | -100.07902 | 23964 ft | 390 kts | 60° |
| 2026-05-08 02:45 | 34.61142 | -100.04752 | 23965 ft | 391 kts | 86° |
| 2026-05-08 02:45 | 34.61102 | -100.01509 | 23978 ft | 390 kts | 97° |
| 2026-05-08 02:46 | 34.60719 | -99.98247 | 23967 ft | 391 kts | 104° |
| 2026-05-08 02:46 | 34.60110 | -99.95040 | 23961 ft | 390 kts | 109° |
| 2026-05-08 02:46 | 34.59174 | -99.91964 | 23958 ft | 388 kts | 120° |
| 2026-05-08 02:46 | 34.57859 | -99.89131 | 23944 ft | 383 kts | 129° |
| 2026-05-08 02:47 | 34.56279 | -99.86554 | 23958 ft | 380 kts | 136° |
| 2026-05-08 02:47 | 34.54545 | -99.84149 | 23963 ft | 378 kts | 139° |
| 2026-05-08 02:47 | 34.52726 | -99.81834 | 23958 ft | 378 kts | 141° |
| 2026-05-08 02:47 | 34.50873 | -99.79567 | 23954 ft | 379 kts | 141° |
| 2026-05-08 02:48 | 34.49003 | -99.77313 | 23956 ft | 379 kts | 142° |
| 2026-05-08 02:48 | 34.47163 | -99.75097 | 23958 ft | 379 kts | 141° |
| 2026-05-08 02:48 | 34.45295 | -99.72842 | 23957 ft | 378 kts | 141° |
| 2026-05-08 02:48 | 34.43435 | -99.70592 | 23962 ft | 378 kts | 141° |
| 2026-05-08 02:49 | 34.41579 | -99.68344 | 23965 ft | 377 kts | 141° |
| 2026-05-08 02:49 | 34.39725 | -99.66099 | 23966 ft | 377 kts | 141° |
| 2026-05-08 02:49 | 34.37869 | -99.63849 | 23967 ft | 377 kts | 141° |
| 2026-05-08 02:49 | 34.36012 | -99.61606 | 23967 ft | 377 kts | 141° |
| 2026-05-08 02:50 | 34.34158 | -99.59367 | 23959 ft | 377 kts | 142° |
| 2026-05-08 02:50 | 34.32323 | -99.57172 | 23967 ft | 375 kts | 146° |
| 2026-05-08 02:50 | 34.30182 | -99.55542 | 23975 ft | 356 kts | 168° |
| 2026-05-08 02:50 | 34.27831 | -99.54898 | 23977 ft | 342 kts | 185° |
| 2026-05-08 02:51 | 34.25504 | -99.55057 | 23988 ft | 330 kts | 200° |
| 2026-05-08 02:51 | 34.23360 | -99.55896 | 23978 ft | 319 kts | 214° |
| 2026-05-08 02:51 | 34.21526 | -99.57323 | 23983 ft | 310 kts | 227° |
| 2026-05-08 02:51 | 34.20093 | -99.59223 | 23982 ft | 304 kts | 240° |
| 2026-05-08 02:52 | 34.19123 | -99.61475 | 23984 ft | 300 kts | 252° |
| 2026-05-08 02:52 | 34.18658 | -99.63913 | 23981 ft | 299 kts | 265° |
| 2026-05-08 02:52 | 34.18708 | -99.66390 | 23984 ft | 301 kts | 277° |
| 2026-05-08 02:52 | 34.19210 | -99.68852 | 23985 ft | 304 kts | 286° |
| 2026-05-08 02:53 | 34.20116 | -99.71180 | 23965 ft | 311 kts | 299° |
| 2026-05-08 02:53 | 34.21554 | -99.73162 | 23984 ft | 316 kts | 308° |
| 2026-05-08 02:53 | 34.23106 | -99.75057 | 23971 ft | 317 kts | 308° |
| 2026-05-08 02:53 | 34.24665 | -99.76943 | 23971 ft | 317 kts | 308° |
| 2026-05-08 02:54 | 34.26228 | -99.78827 | 23961 ft | 317 kts | 308° |
| 2026-05-08 02:54 | 34.27797 | -99.80704 | 23964 ft | 318 kts | 308° |
| 2026-05-08 02:54 | 34.29357 | -99.82594 | 23969 ft | 317 kts | 308° |
| 2026-05-08 02:54 | 34.30913 | -99.84486 | 23968 ft | 317 kts | 308° |
| 2026-05-08 02:55 | 34.32468 | -99.86378 | 23968 ft | 317 kts | 308° |
| 2026-05-08 02:55 | 34.35562 | -99.90144 | 23979 ft | 319 kts | 308° |
| 2026-05-08 02:55 | 34.37126 | -99.92045 | 23983 ft | 319 kts | 308° |
| 2026-05-08 02:56 | 34.38694 | -99.93955 | 23976 ft | 320 kts | 308° |
| 2026-05-08 02:56 | 34.40259 | -99.95859 | 23978 ft | 320 kts | 308° |
| 2026-05-08 02:56 | 34.41829 | -99.97772 | 23981 ft | 320 kts | 308° |
| 2026-05-08 02:56 | 34.43397 | -99.99684 | 23983 ft | 321 kts | 308° |
| 2026-05-08 02:57 | 34.44974 | -100.01607 | 23984 ft | 321 kts | 308° |
| 2026-05-08 02:57 | 34.46545 | -100.03521 | 23966 ft | 321 kts | 308° |
| 2026-05-08 02:57 | 34.48119 | -100.05444 | 23964 ft | 321 kts | 308° |
| 2026-05-08 02:57 | 34.49694 | -100.07369 | 23967 ft | 322 kts | 308° |
| 2026-05-08 02:58 | 34.51247 | -100.09272 | 23961 ft | 322 kts | 308° |
| 2026-05-08 02:58 | 34.52827 | -100.11203 | 23966 ft | 322 kts | 308° |
| 2026-05-08 02:58 | 34.54406 | -100.13133 | 23961 ft | 322 kts | 308° |
| 2026-05-08 02:58 | 34.55978 | -100.15058 | 23962 ft | 321 kts | 308° |
| 2026-05-08 02:59 | 34.57548 | -100.16978 | 23982 ft | 321 kts | 308° |
| 2026-05-08 02:59 | 34.59184 | -100.18835 | 23958 ft | 327 kts | 319° |
| 2026-05-08 02:59 | 34.61263 | -100.20063 | 23975 ft | 339 kts | 335° |
| 2026-05-08 02:59 | 34.63611 | -100.20609 | 23977 ft | 350 kts | 350° |
| 2026-05-08 03:00 | 34.66076 | -100.20428 | 23947 ft | 363 kts | 6° |
| 2026-05-08 03:00 | 34.68428 | -100.19342 | 23952 ft | 376 kts | 28° |
| 2026-05-08 03:00 | 34.70310 | -100.17092 | 23978 ft | 387 kts | 54° |
| 2026-05-08 03:00 | 34.71526 | -100.14164 | 23969 ft | 392 kts | 70° |
| 2026-05-08 03:01 | 34.72125 | -100.10938 | 23966 ft | 393 kts | 86° |
| 2026-05-08 03:01 | 34.71977 | -100.07635 | 23954 ft | 391 kts | 107° |
| 2026-05-08 03:01 | 34.71032 | -100.04581 | 23966 ft | 384 kts | 125° |
| 2026-05-08 03:01 | 34.69420 | -100.02056 | 23976 ft | 375 kts | 140° |
| 2026-05-08 03:02 | 34.67587 | -99.99789 | 23967 ft | 376 kts | 141° |
| 2026-05-08 03:02 | 34.65725 | -99.97565 | 23965 ft | 376 kts | 142° |
| 2026-05-08 03:02 | 34.63852 | -99.95340 | 23962 ft | 377 kts | 142° |
| 2026-05-08 03:02 | 34.62004 | -99.93130 | 23955 ft | 377 kts | 141° |
| 2026-05-08 03:03 | 34.60144 | -99.90890 | 23956 ft | 377 kts | 141° |
| 2026-05-08 03:03 | 34.58288 | -99.88644 | 23932 ft | 376 kts | 141° |
| 2026-05-08 03:03 | 34.56442 | -99.86400 | 23955 ft | 376 kts | 141° |
| 2026-05-08 03:03 | 34.54600 | -99.84157 | 23964 ft | 375 kts | 141° |
| 2026-05-08 03:04 | 34.52756 | -99.81913 | 23954 ft | 375 kts | 141° |
| 2026-05-08 03:04 | 34.50919 | -99.79681 | 23955 ft | 375 kts | 141° |
| 2026-05-08 03:04 | 34.49075 | -99.77441 | 23955 ft | 374 kts | 141° |
| 2026-05-08 03:04 | 34.47245 | -99.75219 | 23957 ft | 373 kts | 141° |
| 2026-05-08 03:05 | 34.45413 | -99.72998 | 23960 ft | 373 kts | 141° |
| 2026-05-08 03:05 | 34.43582 | -99.70777 | 23971 ft | 373 kts | 141° |
| 2026-05-08 03:05 | 34.41769 | -99.68577 | 23966 ft | 373 kts | 141° |
| 2026-05-08 03:05 | 34.39934 | -99.66354 | 23970 ft | 373 kts | 141° |
| 2026-05-08 03:06 | 34.38098 | -99.64129 | 23975 ft | 373 kts | 141° |
| 2026-05-08 03:06 | 34.36258 | -99.61901 | 23973 ft | 374 kts | 141° |
| 2026-05-08 03:06 | 34.34418 | -99.59676 | 23956 ft | 375 kts | 142° |
| 2026-05-08 03:06 | 34.32572 | -99.57441 | 23966 ft | 377 kts | 140° |
| 2026-05-08 03:07 | 34.30965 | -99.54885 | 23982 ft | 385 kts | 127° |
| 2026-05-08 03:07 | 34.29631 | -99.52056 | 23979 ft | 390 kts | 123° |
| 2026-05-08 03:07 | 34.28375 | -99.49144 | 23980 ft | 392 kts | 122° |
| 2026-05-08 03:07 | 34.27115 | -99.46225 | 23982 ft | 393 kts | 122° |
| 2026-05-08 03:08 | 34.25840 | -99.43345 | 23988 ft | 396 kts | 123° |
| 2026-05-08 03:08 | 34.24482 | -99.40378 | 24007 ft | 411 kts | 124° |
| 2026-05-08 03:08 | 34.23049 | -99.37310 | 24006 ft | 428 kts | 124° |
| 2026-05-08 03:08 | 34.21548 | -99.34133 | 24004 ft | 443 kts | 124° |
| 2026-05-08 03:09 | 34.19990 | -99.30856 | 24004 ft | 456 kts | 124° |
| 2026-05-08 03:09 | 34.18398 | -99.27515 | 23981 ft | 460 kts | 124° |
| 2026-05-08 03:09 | 34.16795 | -99.24166 | 23971 ft | 460 kts | 124° |
| 2026-05-08 03:09 | 34.15193 | -99.20824 | 23983 ft | 460 kts | 124° |
| 2026-05-08 03:10 | 34.13593 | -99.17480 | 23981 ft | 459 kts | 124° |
| 2026-05-08 03:10 | 34.12002 | -99.14152 | 23970 ft | 458 kts | 124° |
| 2026-05-08 03:10 | 34.10429 | -99.10859 | 23997 ft | 459 kts | 124° |
| 2026-05-08 03:10 | 34.08825 | -99.07522 | 24002 ft | 462 kts | 124° |
| 2026-05-08 03:11 | 34.07205 | -99.04156 | 24003 ft | 465 kts | 124° |
| 2026-05-08 03:11 | 34.05581 | -99.00783 | 24003 ft | 467 kts | 124° |
| 2026-05-08 03:11 | 34.03946 | -98.97393 | 24003 ft | 468 kts | 124° |
| 2026-05-08 03:11 | 34.02302 | -98.93992 | 24012 ft | 470 kts | 124° |
| 2026-05-08 03:12 | 34.00660 | -98.90589 | 24004 ft | 470 kts | 124° |
| 2026-05-08 03:12 | 33.99018 | -98.87186 | 24007 ft | 469 kts | 124° |
| 2026-05-08 03:12 | 33.97380 | -98.83798 | 24004 ft | 468 kts | 124° |
| 2026-05-08 03:12 | 33.95743 | -98.80415 | 24007 ft | 466 kts | 124° |
| 2026-05-08 03:13 | 33.94111 | -98.77045 | 24012 ft | 465 kts | 124° |
| 2026-05-08 03:13 | 33.92482 | -98.73685 | 24022 ft | 464 kts | 124° |
| 2026-05-08 03:13 | 33.90857 | -98.70337 | 24038 ft | 464 kts | 124° |
| 2026-05-08 03:13 | 33.89222 | -98.66972 | 24020 ft | 465 kts | 124° |
| 2026-05-08 03:14 | 33.87590 | -98.63645 | 23744 ft | 469 kts | 124° |
| 2026-05-08 03:14 | 33.85937 | -98.60294 | 23534 ft | 464 kts | 124° |
| 2026-05-08 03:14 | 33.84296 | -98.56966 | 23267 ft | 459 kts | 124° |
| 2026-05-08 03:14 | 33.82676 | -98.53685 | 23025 ft | 457 kts | 125° |
| 2026-05-08 03:15 | 33.81044 | -98.50376 | 22494 ft | 461 kts | 124° |
| 2026-05-08 03:15 | 33.79433 | -98.47075 | 21985 ft | 455 kts | 124° |
| 2026-05-08 03:15 | 33.77844 | -98.43807 | 21479 ft | 451 kts | 124° |
| 2026-05-08 03:15 | 33.76270 | -98.40573 | 20951 ft | 445 kts | 124° |
| 2026-05-08 03:16 | 33.74716 | -98.37384 | 20463 ft | 441 kts | 124° |
| 2026-05-08 03:16 | 33.73174 | -98.34223 | 19985 ft | 434 kts | 125° |
| 2026-05-08 03:16 | 33.71672 | -98.31157 | 19516 ft | 430 kts | 125° |
| 2026-05-08 03:16 | 33.70134 | -98.28023 | 19038 ft | 424 kts | 125° |
| 2026-05-08 03:17 | 33.68669 | -98.25046 | 18571 ft | 422 kts | 125° |
| 2026-05-08 03:17 | 33.67180 | -98.22017 | 18042 ft | 418 kts | 126° |
| 2026-05-08 03:17 | 33.65715 | -98.19030 | 17549 ft | 414 kts | 125° |
| 2026-05-08 03:17 | 33.64261 | -98.16071 | 17070 ft | 409 kts | 125° |
| 2026-05-08 03:18 | 33.62822 | -98.13156 | 16649 ft | 403 kts | 125° |
| 2026-05-08 03:18 | 33.61402 | -98.10295 | 16246 ft | 397 kts | 125° |
| 2026-05-08 03:18 | 33.59994 | -98.07466 | 15878 ft | 393 kts | 125° |
| 2026-05-08 03:18 | 33.58595 | -98.04660 | 15502 ft | 390 kts | 124° |
| 2026-05-08 03:19 | 33.57215 | -98.01892 | 15139 ft | 386 kts | 124° |
| 2026-05-08 03:19 | 33.55841 | -97.99137 | 14773 ft | 382 kts | 124° |
| 2026-05-08 03:19 | 33.54510 | -97.96458 | 14407 ft | 378 kts | 124° |
| 2026-05-08 03:19 | 33.53161 | -97.93759 | 14053 ft | 375 kts | 123° |
| 2026-05-08 03:20 | 33.51838 | -97.91109 | 13672 ft | 368 kts | 123° |
| 2026-05-08 03:20 | 33.50541 | -97.88506 | 13291 ft | 360 kts | 123° |
| 2026-05-08 03:20 | 33.49273 | -97.85955 | 12930 ft | 352 kts | 123° |
| 2026-05-08 03:20 | 33.48035 | -97.83469 | 12601 ft | 346 kts | 123° |
| 2026-05-08 03:21 | 33.46808 | -97.81009 | 12268 ft | 342 kts | 123° |
| 2026-05-08 03:21 | 33.45590 | -97.78568 | 11954 ft | 340 kts | 124° |
| 2026-05-08 03:21 | 33.44370 | -97.76129 | 11635 ft | 342 kts | 123° |
| 2026-05-08 03:21 | 33.43153 | -97.73693 | 11308 ft | 341 kts | 123° |
| 2026-05-08 03:22 | 33.41936 | -97.71254 | 10980 ft | 339 kts | 123° |
| 2026-05-08 03:22 | 33.40729 | -97.68841 | 10656 ft | 337 kts | 124° |
| 2026-05-08 03:22 | 33.39563 | -97.66510 | 10331 ft | 325 kts | 124° |
| 2026-05-08 03:22 | 33.38417 | -97.64229 | 10027 ft | 314 kts | 125° |
| 2026-05-08 03:23 | 33.37225 | -97.62141 | 9941 ft | 295 kts | 129° |
| 2026-05-08 03:23 | 33.36004 | -97.60173 | 9481 ft | 292 kts | 130° |
| 2026-05-08 03:23 | 33.34794 | -97.58255 | 9204 ft | 287 kts | 130° |
| 2026-05-08 03:23 | 33.33602 | -97.56354 | 8922 ft | 286 kts | 130° |
| 2026-05-08 03:24 | 33.32413 | -97.54442 | 8659 ft | 287 kts | 130° |
| 2026-05-08 03:24 | 33.31229 | -97.52530 | 8394 ft | 287 kts | 130° |
| 2026-05-08 03:24 | 33.30039 | -97.50606 | 8121 ft | 287 kts | 129° |
| 2026-05-08 03:24 | 33.28868 | -97.48706 | 7833 ft | 287 kts | 129° |
| 2026-05-08 03:25 | 33.27711 | -97.46793 | 7581 ft | 282 kts | 124° |
| 2026-05-08 03:25 | 33.27088 | -97.44595 | 7325 ft | 282 kts | 97° |
| 2026-05-08 03:25 | 33.26960 | -97.42264 | 7094 ft | 281 kts | 94° |
| 2026-05-08 03:25 | 33.26860 | -97.39925 | 6835 ft | 283 kts | 94° |
| 2026-05-08 03:26 | 33.26749 | -97.37582 | 6564 ft | 281 kts | 95° |
| 2026-05-08 03:26 | 33.26580 | -97.35253 | 6287 ft | 280 kts | 95° |
| 2026-05-08 03:26 | 33.26355 | -97.32953 | 5986 ft | 278 kts | 109° |
| 2026-05-08 03:26 | 33.25575 | -97.30894 | 5748 ft | 269 kts | 121° |
| 2026-05-08 03:27 | 33.24608 | -97.29004 | 5511 ft | 262 kts | 124° |
| 2026-05-08 03:27 | 33.23641 | -97.27203 | 5346 ft | 260 kts | 124° |
| 2026-05-08 03:27 | 33.22663 | -97.25398 | 5260 ft | 258 kts | 124° |
| 2026-05-08 03:27 | 33.21684 | -97.23605 | 5109 ft | 260 kts | 124° |
| 2026-05-08 03:28 | 33.20704 | -97.21810 | 5028 ft | 256 kts | 124° |
| 2026-05-08 03:28 | 33.19740 | -97.20035 | 5010 ft | 251 kts | 124° |
| 2026-05-08 03:28 | 33.18812 | -97.18325 | 4999 ft | 239 kts | 124° |
| 2026-05-08 03:28 | 33.17909 | -97.16691 | 4992 ft | 234 kts | 124° |
| 2026-05-08 03:29 | 33.17007 | -97.15058 | 5015 ft | 238 kts | 124° |
| 2026-05-08 03:29 | 33.16096 | -97.13389 | 5026 ft | 241 kts | 124° |
| 2026-05-08 03:29 | 33.15192 | -97.11733 | 5021 ft | 235 kts | 124° |
| 2026-05-08 03:29 | 33.14322 | -97.10117 | 5011 ft | 229 kts | 124° |
| 2026-05-08 03:30 | 33.12622 | -97.06944 | 4970 ft | 223 kts | 125° |
| 2026-05-08 03:30 | 33.10397 | -97.04925 | 4563 ft | 201 kts | 174° |
| 2026-05-08 03:31 | 33.07745 | -97.05368 | 4114 ft | 193 kts | 193° |
| 2026-05-08 03:31 | 33.05171 | -97.05635 | 3758 ft | 177 kts | 176° |
| 2026-05-08 03:32 | 33.03993 | -97.05544 | 3670 ft | 161 kts | 177° |
| 2026-05-08 03:32 | 33.02896 | -97.05500 | 3426 ft | 153 kts | 179° |
| 2026-05-08 03:32 | 33.01855 | -97.05491 | 3094 ft | 148 kts | 179° |
| 2026-05-08 03:32 | 33.00832 | -97.05491 | 2733 ft | 144 kts | 180° |
| 2026-05-08 03:33 | 32.99857 | -97.05485 | 2456 ft | 136 kts | 178° |
| 2026-05-08 03:33 | 32.98914 | -97.05480 | 2232 ft | 135 kts | 179° |
| 2026-05-08 03:33 | 32.97968 | -97.05489 | 2035 ft | 137 kts | 180° |
| 2026-05-08 03:33 | 32.97018 | -97.05499 | 1839 ft | 137 kts | 179° |
| 2026-05-08 03:34 | 32.96388 | -97.05492 | 1710 ft | 137 kts | 179° |
| 2026-05-08 03:34 | 32.95433 | -97.05486 | 1494 ft | 139 kts | 178° |
| 2026-05-08 03:34 | 32.94457 | -97.05478 | 1265 ft | 140 kts | 179° |
| 2026-05-08 03:34 | 32.93472 | -97.05468 | 1030 ft | 142 kts | 179° |
| 2026-05-08 03:35 | 32.92498 | -97.05471 | 813 ft | 138 kts | 180° |
| 2026-05-08 03:35 | 32.91532 | -97.05467 | 672 ft | 140 kts | 179° |
| 2026-05-08 03:35 | 32.90581 | -97.05470 | 598 ft | 133 kts | 180° |
| 2026-05-08 03:35 | 32.89846 | -97.05473 | 597 ft | 74 kts | 180° |
| 2026-05-08 03:36 | 32.89508 | -97.05473 | 597 ft | 36 kts | 180° |
| 2026-05-08 03:36 | 32.89141 | -97.05347 | 597 ft | 0 kts | 150° |
| 2026-05-08 03:38 | 32.89103 | -97.05321 | 597 ft | 13 kts | 150° |
| 2026-05-08 03:38 | 32.89047 | -97.05242 | 597 ft | 13 kts | 98° |
| 2026-05-08 03:38 | 32.89045 | -97.05135 | 597 ft | 13 kts | 90° |
| 2026-05-08 03:39 | 32.89044 | -97.05004 | 597 ft | 18 kts | 90° |
| 2026-05-08 03:39 | 32.89044 | -97.04853 | 597 ft | 16 kts | 90° |
| 2026-05-08 03:39 | 32.89059 | -97.04749 | 597 ft | 10 kts | 31° |
| 2026-05-08 03:39 | 32.89126 | -97.04761 | 597 ft | 10 kts | 346° |
| 2026-05-08 03:40 | 32.89196 | -97.04769 | 597 ft | 13 kts | 1° |
| 2026-05-08 03:40 | 32.89299 | -97.04768 | 597 ft | 16 kts | 0° |
| 2026-05-08 03:40 | 32.89404 | -97.04767 | 597 ft | 15 kts | 2° |
| 2026-05-08 03:40 | 32.89438 | -97.04683 | 597 ft | 13 kts | 94° |
| 2026-05-08 03:41 | 32.89430 | -97.04574 | 597 ft | 13 kts | 90° |
| 2026-05-08 03:41 | 32.89442 | -97.04472 | 597 ft | 10 kts | 46° |
| 2026-05-08 03:41 | 32.89496 | -97.04465 | 597 ft | 4 kts | 0° |
| 2026-05-08 03:41 | 32.89510 | -97.04465 | 597 ft | 0 kts | 360° |